Owensboro-Daviess County Regional (OWB)

 

Airport Diagram
Current Weather/Forecast (VFR Conditions)
METAR KOWB 182356Z 34006KT 10SM BKN080 OVC100 14/06 A2990 RMK AO2 SLP127 T01390061 10189 20139 52003
TAF KOWB 182320Z 1900/1924 VRB05KT P6SM VCSH BKN050 TEMPO 1900/1903 -SHRA FM190400 VRB04KT P6SM SCT080

Airport Information

All Charts
General
Chart Name View
AIRPORT DIAGRAM
AIRPORT DIAGRAM
TAKEOFF MINIMUMS
ALTERNATE MINIMUMS
TAKEOFF MINIMUMS
ALTERNATE MINIMUMS
HOT SPOT
HOT SPOT

Approaches
Chart Name Download
ILS OR LOC RWY 36
RNAV (GPS) RWY 06
RNAV (GPS) RWY 18
RNAV (GPS) RWY 24
RNAV (GPS) RWY 36
VOR RWY 06
VOR RWY 18
VOR RWY 36
ILS OR LOC RWY 36
RNAV (GPS) RWY 06
RNAV (GPS) RWY 18
RNAV (GPS) RWY 24
RNAV (GPS) RWY 36
VOR RWY 06
VOR RWY 18
VOR RWY 36


Airport Statistics
Departures Arrivals Local
All Collected Stats since June 2016: 45 47 0
2021 Stats: 7 9 0
April Stats: 1 2 0

Inbound Traffic (Arrivals) - 0

No inbound traffic.


Outbound Traffic (Departures) - 0

No outbound traffic.


Local Traffic (Pattern) - 0

No local traffic.